sensor_id;sensor_type;location;lat;lon;timestamp;pressure;altitude;pressure_sealevel;temperature;humidity
73692;BME280;61996;49.910;35.562;2023-11-19T00:00:51;99649.38;;;18.27;48.93
73692;BME280;61996;49.910;35.562;2023-11-19T00:03:54;99647.00;;;18.24;48.93
73692;BME280;61996;49.910;35.562;2023-11-19T00:06:57;99644.59;;;18.21;49.05
73692;BME280;61996;49.910;35.562;2023-11-19T00:10:06;99639.84;;;18.15;49.13
73692;BME280;61996;49.910;35.562;2023-11-19T00:13:12;99640.25;;;18.20;49.06
73692;BME280;61996;49.910;35.562;2023-11-19T00:16:16;99640.78;;;18.14;49.13
73692;BME280;61996;49.910;35.562;2023-11-19T00:19:19;99650.03;;;18.10;49.18
73692;BME280;61996;49.910;35.562;2023-11-19T00:22:22;99648.06;;;18.12;49.17
73692;BME280;61996;49.910;35.562;2023-11-19T00:25:27;99633.47;;;18.06;49.18
73692;BME280;61996;49.910;35.562;2023-11-19T00:28:30;99641.44;;;18.06;49.20
73692;BME280;61996;49.910;35.562;2023-11-19T00:31:35;99639.78;;;18.05;49.21
73692;BME280;61996;49.910;35.562;2023-11-19T00:34:38;99642.44;;;18.05;49.20
73692;BME280;61996;49.910;35.562;2023-11-19T00:37:41;99643.69;;;18.01;49.29
73692;BME280;61996;49.910;35.562;2023-11-19T00:40:47;99642.97;;;17.99;49.24
73692;BME280;61996;49.910;35.562;2023-11-19T00:43:50;99628.13;;;17.97;49.26
73692;BME280;61996;49.910;35.562;2023-11-19T00:46:55;99608.34;;;17.90;49.40
73692;BME280;61996;49.910;35.562;2023-11-19T00:49:57;99600.06;;;17.93;49.39
73692;BME280;61996;49.910;35.562;2023-11-19T00:53:00;99603.84;;;17.90;49.32
73692;BME280;61996;49.910;35.562;2023-11-19T00:56:05;99591.41;;;17.91;49.30
73692;BME280;61996;49.910;35.562;2023-11-19T00:59:08;99584.94;;;17.84;49.44
73692;BME280;61996;49.910;35.562;2023-11-19T01:02:12;99593.03;;;17.82;49.58
73692;BME280;61996;49.910;35.562;2023-11-19T01:05:16;99594.03;;;17.81;49.45
73692;BME280;61996;49.910;35.562;2023-11-19T01:08:23;99582.25;;;17.84;49.44
73692;BME280;61996;49.910;35.562;2023-11-19T01:11:26;99578.06;;;17.81;49.57
73692;BME280;61996;49.910;35.562;2023-11-19T01:14:29;99568.38;;;17.80;49.44
73692;BME280;61996;49.910;35.562;2023-11-19T01:17:34;99567.44;;;17.81;49.47
73692;BME280;61996;49.910;35.562;2023-11-19T01:20:37;99566.13;;;17.75;49.49
73692;BME280;61996;49.910;35.562;2023-11-19T01:23:40;99567.81;;;17.76;49.47
73692;BME280;61996;49.910;35.562;2023-11-19T01:26:44;99552.69;;;17.77;49.41
73692;BME280;61996;49.910;35.562;2023-11-19T01:29:48;99559.88;;;17.86;49.58
73692;BME280;61996;49.910;35.562;2023-11-19T01:32:52;99563.06;;;17.80;49.31
73692;BME280;61996;49.910;35.562;2023-11-19T01:35:55;99565.53;;;17.72;49.44
73692;BME280;61996;49.910;35.562;2023-11-19T01:39:00;99557.56;;;17.72;49.44
73692;BME280;61996;49.910;35.562;2023-11-19T01:42:04;99554.22;;;17.79;49.20
73692;BME280;61996;49.910;35.562;2023-11-19T01:45:07;99557.66;;;17.70;49.36
73692;BME280;61996;49.910;35.562;2023-11-19T01:48:13;99553.34;;;17.69;49.51
73692;BME280;61996;49.910;35.562;2023-11-19T01:51:16;99564.94;;;17.68;49.56
73692;BME280;61996;49.910;35.562;2023-11-19T01:54:20;99557.34;;;17.64;49.57
73692;BME280;61996;49.910;35.562;2023-11-19T01:57:23;99560.16;;;17.62;49.64
73692;BME280;61996;49.910;35.562;2023-11-19T02:00:26;99548.94;;;17.59;49.63
73692;BME280;61996;49.910;35.562;2023-11-19T02:03:31;99555.38;;;17.56;49.75
73692;BME280;61996;49.910;35.562;2023-11-19T02:06:34;99555.22;;;17.58;49.76
73692;BME280;61996;49.910;35.562;2023-11-19T02:09:42;99554.38;;;17.57;49.56
73692;BME280;61996;49.910;35.562;2023-11-19T02:12:44;99559.00;;;17.55;49.61
73692;BME280;61996;49.910;35.562;2023-11-19T02:15:48;99556.06;;;17.58;49.59
73692;BME280;61996;49.910;35.562;2023-11-19T02:18:52;99547.38;;;17.56;49.61
73692;BME280;61996;49.910;35.562;2023-11-19T02:21:55;99542.34;;;17.53;49.59
73692;BME280;61996;49.910;35.562;2023-11-19T02:24:59;99555.88;;;17.50;49.57
73692;BME280;61996;49.910;35.562;2023-11-19T02:28:04;99543.84;;;17.46;49.74
73692;BME280;61996;49.910;35.562;2023-11-19T02:31:07;99540.06;;;17.48;49.61
73692;BME280;61996;49.910;35.562;2023-11-19T02:34:12;99534.75;;;17.48;49.65
73692;BME280;61996;49.910;35.562;2023-11-19T02:37:15;99538.66;;;17.44;49.67
73692;BME280;61996;49.910;35.562;2023-11-19T02:40:18;99535.16;;;17.44;49.71
73692;BME280;61996;49.910;35.562;2023-11-19T02:43:22;99532.63;;;17.42;49.71
73692;BME280;61996;49.910;35.562;2023-11-19T02:46:25;99536.25;;;17.41;49.71
73692;BME280;61996;49.910;35.562;2023-11-19T02:49:28;99530.25;;;17.39;49.65
73692;BME280;61996;49.910;35.562;2023-11-19T02:52:31;99531.09;;;17.40;49.56
73692;BME280;61996;49.910;35.562;2023-11-19T02:55:38;99525.03;;;17.38;49.69
73692;BME280;61996;49.910;35.562;2023-11-19T02:58:44;99525.19;;;17.36;49.62
73692;BME280;61996;49.910;35.562;2023-11-19T03:01:48;99537.91;;;17.33;49.75
73692;BME280;61996;49.910;35.562;2023-11-19T03:04:52;99533.75;;;17.40;49.52
73692;BME280;61996;49.910;35.562;2023-11-19T03:07:55;99533.16;;;17.36;49.53
73692;BME280;61996;49.910;35.562;2023-11-19T03:10:58;99530.75;;;17.33;49.59
73692;BME280;61996;49.910;35.562;2023-11-19T03:14:03;99533.00;;;17.38;49.52
73692;BME280;61996;49.910;35.562;2023-11-19T03:17:06;99537.63;;;17.36;49.59
73692;BME280;61996;49.910;35.562;2023-11-19T03:20:11;99532.59;;;17.33;49.61
73692;BME280;61996;49.910;35.562;2023-11-19T03:23:16;99518.66;;;17.50;49.17
73692;BME280;61996;49.910;35.562;2023-11-19T03:26:19;99515.09;;;17.61;48.82
73692;BME280;61996;49.910;35.562;2023-11-19T03:29:24;99517.41;;;17.75;48.43
73692;BME280;61996;49.910;35.562;2023-11-19T03:32:27;99516.34;;;17.87;48.65
73692;BME280;61996;49.910;35.562;2023-11-19T03:35:30;99509.38;;;17.96;48.51
73692;BME280;61996;49.910;35.562;2023-11-19T03:38:34;99503.06;;;18.06;48.24
73692;BME280;61996;49.910;35.562;2023-11-19T03:41:38;99512.91;;;18.16;48.19
73692;BME280;61996;49.910;35.562;2023-11-19T03:44:44;99501.56;;;18.23;47.98
73692;BME280;61996;49.910;35.562;2023-11-19T03:47:47;99499.06;;;18.31;47.57
73692;BME280;61996;49.910;35.562;2023-11-19T03:50:51;99500.34;;;18.37;47.66
73692;BME280;61996;49.910;35.562;2023-11-19T03:53:54;99484.22;;;18.39;47.54
73692;BME280;61996;49.910;35.562;2023-11-19T03:56:57;99487.84;;;18.47;47.55
73692;BME280;61996;49.910;35.562;2023-11-19T04:00:03;99479.72;;;18.49;47.27
73692;BME280;61996;49.910;35.562;2023-11-19T04:03:10;99473.28;;;18.51;47.38
73692;BME280;61996;49.910;35.562;2023-11-19T04:06:13;99467.41;;;18.57;47.46
73692;BME280;61996;49.910;35.562;2023-11-19T04:09:16;99480.00;;;18.55;47.42
73692;BME280;61996;49.910;35.562;2023-11-19T04:12:18;99477.91;;;18.59;47.61
73692;BME280;61996;49.910;35.562;2023-11-19T04:15:24;99468.63;;;18.63;47.33
73692;BME280;61996;49.910;35.562;2023-11-19T04:18:27;99456.16;;;18.63;47.29
73692;BME280;61996;49.910;35.562;2023-11-19T04:21:31;99461.94;;;18.69;47.43
73692;BME280;61996;49.910;35.562;2023-11-19T04:24:34;99469.94;;;18.69;46.86
73692;BME280;61996;49.910;35.562;2023-11-19T04:27:37;99472.13;;;18.63;47.36
73692;BME280;61996;49.910;35.562;2023-11-19T04:30:41;99475.25;;;18.59;47.49
73692;BME280;61996;49.910;35.562;2023-11-19T04:33:44;99472.72;;;18.57;47.28
73692;BME280;61996;49.910;35.562;2023-11-19T04:36:47;99463.34;;;18.53;47.17
73692;BME280;61996;49.910;35.562;2023-11-19T04:39:50;99463.88;;;18.47;47.31
73692;BME280;61996;49.910;35.562;2023-11-19T04:42:53;99451.97;;;18.42;47.51
73692;BME280;61996;49.910;35.562;2023-11-19T04:45:58;99457.16;;;18.33;47.71
73692;BME280;61996;49.910;35.562;2023-11-19T04:49:01;99460.38;;;18.27;47.65
73692;BME280;61996;49.910;35.562;2023-11-19T04:52:04;99464.31;;;18.23;47.82
73692;BME280;61996;49.910;35.562;2023-11-19T04:55:07;99458.25;;;18.21;47.84
73692;BME280;61996;49.910;35.562;2023-11-19T04:58:13;99455.91;;;18.18;47.96
73692;BME280;61996;49.910;35.562;2023-11-19T05:01:18;99461.06;;;18.10;47.92
73692;BME280;61996;49.910;35.562;2023-11-19T05:04:21;99472.97;;;18.06;48.14
73692;BME280;61996;49.910;35.562;2023-11-19T05:07:24;99472.13;;;18.05;48.17
73692;BME280;61996;49.910;35.562;2023-11-19T05:10:27;99464.53;;;18.01;48.27
73692;BME280;61996;49.910;35.562;2023-11-19T05:13:30;99470.00;;;17.99;48.13
73692;BME280;61996;49.910;35.562;2023-11-19T05:16:34;99466.94;;;17.94;48.29
73692;BME280;61996;49.910;35.562;2023-11-19T05:19:38;99477.69;;;17.93;48.36
73692;BME280;61996;49.910;35.562;2023-11-19T05:22:40;99476.72;;;17.94;48.23
73692;BME280;61996;49.910;35.562;2023-11-19T05:25:43;99477.69;;;17.93;48.31
73692;BME280;61996;49.910;35.562;2023-11-19T05:28:47;99487.78;;;17.89;48.38
73692;BME280;61996;49.910;35.562;2023-11-19T05:31:51;99502.31;;;17.85;48.43
73692;BME280;61996;49.910;35.562;2023-11-19T05:34:56;99489.31;;;17.82;48.64
73692;BME280;61996;49.910;35.562;2023-11-19T05:37:59;99484.97;;;17.81;48.58
73692;BME280;61996;49.910;35.562;2023-11-19T05:41:03;99484.38;;;17.77;48.51
73692;BME280;61996;49.910;35.562;2023-11-19T05:44:06;99477.38;;;17.76;48.64
73692;BME280;61996;49.910;35.562;2023-11-19T05:47:10;99477.78;;;17.72;48.66
73692;BME280;61996;49.910;35.562;2023-11-19T05:50:13;99481.41;;;17.71;48.71
73692;BME280;61996;49.910;35.562;2023-11-19T05:53:17;99496.66;;;17.69;48.76
73692;BME280;61996;49.910;35.562;2023-11-19T05:56:20;99485.00;;;17.60;48.75
73692;BME280;61996;49.910;35.562;2023-11-19T05:59:25;99482.91;;;17.64;48.57
73692;BME280;61996;49.910;35.562;2023-11-19T06:02:30;99478.69;;;17.61;48.81
73692;BME280;61996;49.910;35.562;2023-11-19T06:05:33;99487.53;;;17.62;48.86
73692;BME280;61996;49.910;35.562;2023-11-19T06:08:36;99488.88;;;17.56;48.98
73692;BME280;61996;49.910;35.562;2023-11-19T06:11:39;99488.75;;;17.58;48.88
73692;BME280;61996;49.910;35.562;2023-11-19T06:14:42;99480.06;;;17.56;48.86
73692;BME280;61996;49.910;35.562;2023-11-19T06:17:46;99480.59;;;17.49;48.88
73692;BME280;61996;49.910;35.562;2023-11-19T06:20:49;99470.09;;;17.48;48.82
73692;BME280;61996;49.910;35.562;2023-11-19T06:23:52;99469.13;;;17.49;48.84
73692;BME280;61996;49.910;35.562;2023-11-19T06:26:56;99457.66;;;17.48;48.79
73692;BME280;61996;49.910;35.562;2023-11-19T06:29:59;99472.78;;;17.48;48.87
73692;BME280;61996;49.910;35.562;2023-11-19T06:33:04;99467.59;;;17.46;48.92
73692;BME280;61996;49.910;35.562;2023-11-19T06:36:07;99462.53;;;17.43;49.01
73692;BME280;61996;49.910;35.562;2023-11-19T06:39:10;99446.13;;;17.38;49.12
73692;BME280;61996;49.910;35.562;2023-11-19T06:42:13;99439.97;;;17.38;49.13
73692;BME280;61996;49.910;35.562;2023-11-19T06:45:16;99435.78;;;17.35;49.13
73692;BME280;61996;49.910;35.562;2023-11-19T06:48:21;99435.09;;;17.33;49.17
73692;BME280;61996;49.910;35.562;2023-11-19T06:51:25;99427.34;;;17.30;49.18
73692;BME280;61996;49.910;35.562;2023-11-19T06:54:28;99426.66;;;17.28;49.24
73692;BME280;61996;49.910;35.562;2023-11-19T06:57:32;99429.03;;;17.31;49.16
73692;BME280;61996;49.910;35.562;2023-11-19T07:00:35;99423.47;;;17.34;49.06
73692;BME280;61996;49.910;35.562;2023-11-19T07:03:39;99422.88;;;17.31;49.22
73692;BME280;61996;49.910;35.562;2023-11-19T07:06:42;99423.16;;;17.27;49.24
73692;BME280;61996;49.910;35.562;2023-11-19T07:09:45;99418.97;;;17.25;49.28
73692;BME280;61996;49.910;35.562;2023-11-19T07:12:49;99427.19;;;17.22;49.14
73692;BME280;61996;49.910;35.562;2023-11-19T07:15:52;99427.03;;;17.23;49.19
73692;BME280;61996;49.910;35.562;2023-11-19T07:18:56;99421.03;;;17.21;49.23
73692;BME280;61996;49.910;35.562;2023-11-19T07:22:00;99409.56;;;17.21;49.14
73692;BME280;61996;49.910;35.562;2023-11-19T07:25:03;99413.19;;;17.20;49.13
73692;BME280;61996;49.910;35.562;2023-11-19T07:28:06;99408.88;;;17.19;49.13
73692;BME280;61996;49.910;35.562;2023-11-19T07:31:09;99407.03;;;17.19;49.11
73692;BME280;61996;49.910;35.562;2023-11-19T07:34:13;99397.69;;;17.25;48.93
73692;BME280;61996;49.910;35.562;2023-11-19T07:37:16;99394.59;;;17.20;49.08
73692;BME280;61996;49.910;35.562;2023-11-19T07:40:19;99388.00;;;17.14;49.24
73692;BME280;61996;49.910;35.562;2023-11-19T07:43:22;99401.28;;;17.14;49.14
73692;BME280;61996;49.910;35.562;2023-11-19T07:46:25;99396.25;;;17.11;49.28
73692;BME280;61996;49.910;35.562;2023-11-19T07:49:30;99394.28;;;17.13;49.06
73692;BME280;61996;49.910;35.562;2023-11-19T07:52:33;99385.63;;;17.11;49.06
73692;BME280;61996;49.910;35.562;2023-11-19T07:55:37;99385.47;;;17.13;49.15
73692;BME280;61996;49.910;35.562;2023-11-19T07:58:43;99383.34;;;17.07;49.17
73692;BME280;61996;49.910;35.562;2023-11-19T08:01:46;99375.81;;;17.12;49.19
73692;BME280;61996;49.910;35.562;2023-11-19T08:04:50;99372.97;;;17.04;49.18
73692;BME280;61996;49.910;35.562;2023-11-19T08:07:56;99367.56;;;17.05;49.16
73692;BME280;61996;49.910;35.562;2023-11-19T08:10:59;99359.31;;;17.08;49.07
73692;BME280;61996;49.910;35.562;2023-11-19T08:14:02;99368.38;;;17.06;49.18
73692;BME280;61996;49.910;35.562;2023-11-19T08:17:05;99367.38;;;16.97;49.26
73692;BME280;61996;49.910;35.562;2023-11-19T08:20:10;99359.28;;;16.98;49.23
73692;BME280;61996;49.910;35.562;2023-11-19T08:23:13;99367.09;;;17.00;49.23
73692;BME280;61996;49.910;35.562;2023-11-19T08:26:16;99382.44;;;16.96;49.24
73692;BME280;61996;49.910;35.562;2023-11-19T08:29:22;99372.13;;;17.03;49.03
73692;BME280;61996;49.910;35.562;2023-11-19T08:32:26;99350.47;;;16.98;49.17
73692;BME280;61996;49.910;35.562;2023-11-19T08:35:31;99361.09;;;16.98;49.18
73692;BME280;61996;49.910;35.562;2023-11-19T08:38:35;99359.13;;;17.00;49.09
73692;BME280;61996;49.910;35.562;2023-11-19T08:41:38;99361.09;;;16.98;49.17
73692;BME280;61996;49.910;35.562;2023-11-19T08:44:43;99359.28;;;16.98;49.10
73692;BME280;61996;49.910;35.562;2023-11-19T08:47:48;99352.00;;;17.01;49.08
73692;BME280;61996;49.910;35.562;2023-11-19T08:50:53;99335.13;;;17.11;48.77
73692;BME280;61996;49.910;35.562;2023-11-19T08:53:56;99328.31;;;17.18;48.33
73692;BME280;61996;49.910;35.562;2023-11-19T08:56:59;99335.59;;;17.26;48.34
73692;BME280;61996;49.910;35.562;2023-11-19T09:00:02;99338.56;;;17.42;48.04
73692;BME280;61996;49.910;35.562;2023-11-19T09:03:09;99319.81;;;17.44;48.22
73692;BME280;61996;49.910;35.562;2023-11-19T09:06:13;99325.31;;;17.62;48.07
73692;BME280;61996;49.910;35.562;2023-11-19T09:09:16;99319.88;;;17.73;47.90
73692;BME280;61996;49.910;35.562;2023-11-19T09:12:19;99308.13;;;17.85;47.54
73692;BME280;61996;49.910;35.562;2023-11-19T09:15:22;99304.22;;;17.89;47.87
73692;BME280;61996;49.910;35.562;2023-11-19T09:18:25;99296.94;;;17.91;47.69
73692;BME280;61996;49.910;35.562;2023-11-19T09:21:30;99288.94;;;18.01;46.99
73692;BME280;61996;49.910;35.562;2023-11-19T09:24:32;99288.94;;;18.01;47.61
73692;BME280;61996;49.910;35.562;2023-11-19T09:27:35;99285.69;;;18.07;47.03
73692;BME280;61996;49.910;35.562;2023-11-19T09:30:38;99281.94;;;18.10;47.65
73692;BME280;61996;49.910;35.562;2023-11-19T09:33:41;99278.00;;;18.14;47.64
73692;BME280;61996;49.910;35.562;2023-11-19T09:36:46;99274.91;;;18.18;47.54
73692;BME280;61996;49.910;35.562;2023-11-19T09:39:48;99268.75;;;18.18;47.67
73692;BME280;61996;49.910;35.562;2023-11-19T09:42:52;99265.09;;;18.19;47.66
73692;BME280;61996;49.910;35.562;2023-11-19T09:45:55;99255.56;;;18.26;47.21
73692;BME280;61996;49.910;35.562;2023-11-19T09:48:59;99252.91;;;18.26;47.38
73692;BME280;61996;49.910;35.562;2023-11-19T09:52:04;99254.16;;;18.31;47.45
73692;BME280;61996;49.910;35.562;2023-11-19T09:55:07;99266.47;;;18.32;47.24
73692;BME280;61996;49.910;35.562;2023-11-19T09:58:10;99261.84;;;18.34;47.28
73692;BME280;61996;49.910;35.562;2023-11-19T10:01:14;99264.66;;;18.33;47.70
73692;BME280;61996;49.910;35.562;2023-11-19T10:04:20;99262.66;;;18.35;47.15
73692;BME280;61996;49.910;35.562;2023-11-19T10:07:24;99255.09;;;18.40;47.22
73692;BME280;61996;49.910;35.562;2023-11-19T10:10:28;99252.44;;;18.40;47.54
73692;BME280;61996;49.910;35.562;2023-11-19T10:13:30;99249.63;;;18.42;47.15
73692;BME280;61996;49.910;35.562;2023-11-19T10:16:34;99243.19;;;18.44;47.47
73692;BME280;61996;49.910;35.562;2023-11-19T10:19:38;99240.22;;;18.47;47.38
73692;BME280;61996;49.910;35.562;2023-11-19T10:22:44;99236.28;;;18.51;47.23
73692;BME280;61996;49.910;35.562;2023-11-19T10:25:47;99226.16;;;18.55;46.99
73692;BME280;61996;49.910;35.562;2023-11-19T10:28:50;99208.38;;;18.55;46.89
73692;BME280;61996;49.910;35.562;2023-11-19T10:31:56;99196.03;;;18.54;47.10
73692;BME280;61996;49.910;35.562;2023-11-19T10:35:20;99200.69;;;18.52;47.08
73692;BME280;61996;49.910;35.562;2023-11-19T10:38:24;99201.13;;;18.48;47.04
73692;BME280;61996;49.910;35.562;2023-11-19T10:41:28;99187.28;;;18.44;47.01
73692;BME280;61996;49.910;35.562;2023-11-19T10:44:31;99182.78;;;18.45;47.02
73692;BME280;61996;49.910;35.562;2023-11-19T10:47:37;99184.06;;;18.41;46.68
73692;BME280;61996;49.910;35.562;2023-11-19T10:50:44;99176.53;;;18.36;46.81
73692;BME280;61996;49.910;35.562;2023-11-19T10:53:50;99172.06;;;18.27;47.04
73692;BME280;61996;49.910;35.562;2023-11-19T10:56:54;99167.31;;;18.21;47.01
73692;BME280;61996;49.910;35.562;2023-11-19T11:00:00;99153.91;;;18.13;47.29
73692;BME280;61996;49.910;35.562;2023-11-19T11:03:08;99153.91;;;18.13;47.25
73692;BME280;61996;49.910;35.562;2023-11-19T11:06:12;99154.22;;;18.10;47.44
73692;BME280;61996;49.910;35.562;2023-11-19T11:09:17;99147.22;;;17.99;47.60
73692;BME280;61996;49.910;35.562;2023-11-19T11:12:21;99148.38;;;17.96;47.52
73692;BME280;61996;49.910;35.562;2023-11-19T11:15:26;99153.69;;;17.96;47.61
73692;BME280;61996;49.910;35.562;2023-11-19T11:18:30;99146.97;;;17.92;47.62
73692;BME280;61996;49.910;35.562;2023-11-19T11:21:33;99146.28;;;17.90;47.65
73692;BME280;61996;49.910;35.562;2023-11-19T11:24:45;99136.91;;;17.86;47.93
73692;BME280;61996;49.910;35.562;2023-11-19T11:28:05;99140.00;;;17.82;47.83
73692;BME280;61996;49.910;35.562;2023-11-19T11:31:20;99143.94;;;17.77;47.87
73692;BME280;61996;49.910;35.562;2023-11-19T11:34:34;99132.16;;;17.70;47.97
73692;BME280;61996;49.910;35.562;2023-11-19T11:37:44;99109.91;;;17.71;47.94
73692;BME280;61996;49.910;35.562;2023-11-19T11:44:07;99110.19;;;17.68;48.05
73692;BME280;61996;49.910;35.562;2023-11-19T11:47:10;99107.94;;;17.64;48.03
73692;BME280;61996;49.910;35.562;2023-11-19T11:50:14;99094.66;;;17.64;48.14
73692;BME280;61996;49.910;35.562;2023-11-19T11:53:18;99106.59;;;17.60;48.01
73692;BME280;61996;49.910;35.562;2023-11-19T11:56:21;99082.66;;;17.60;48.04
73692;BME280;61996;49.910;35.562;2023-11-19T11:59:25;99062.63;;;17.56;48.18
73692;BME280;61996;49.910;35.562;2023-11-19T12:02:28;99062.94;;;17.52;48.18
73692;BME280;61996;49.910;35.562;2023-11-19T12:05:32;99060.56;;;17.49;48.25
73692;BME280;61996;49.910;35.562;2023-11-19T12:08:36;99061.38;;;17.50;48.31
73692;BME280;61996;49.910;35.562;2023-11-19T12:11:47;99054.13;;;17.42;48.32
73692;BME280;61996;49.910;35.562;2023-11-19T12:15:04;99048.56;;;17.45;48.42
73692;BME280;61996;49.910;35.562;2023-11-19T12:18:08;99033.72;;;17.43;48.15
73692;BME280;61996;49.910;35.562;2023-11-19T12:21:11;99047.22;;;17.59;48.23
73692;BME280;61996;49.910;35.562;2023-11-19T12:24:14;99042.38;;;17.45;48.41
73692;BME280;61996;49.910;35.562;2023-11-19T12:27:17;99034.28;;;17.46;48.30
73692;BME280;61996;49.910;35.562;2023-11-19T12:30:22;99032.47;;;17.37;48.49
73692;BME280;61996;49.910;35.562;2023-11-19T12:33:27;99048.41;;;17.37;48.56
73692;BME280;61996;49.910;35.562;2023-11-19T12:36:30;99047.03;;;17.33;48.69
73692;BME280;61996;49.910;35.562;2023-11-19T12:39:33;99032.03;;;17.42;48.23
73692;BME280;61996;49.910;35.562;2023-11-19T12:42:36;99037.25;;;17.34;48.68
73692;BME280;61996;49.910;35.562;2023-11-19T12:45:41;99039.44;;;17.38;48.80
73692;BME280;61996;49.910;35.562;2023-11-19T12:48:45;99042.13;;;17.29;48.91
73692;BME280;61996;49.910;35.562;2023-11-19T12:51:48;99048.69;;;17.34;48.94
73692;BME280;61996;49.910;35.562;2023-11-19T12:54:52;99038.50;;;17.30;49.00
73692;BME280;61996;49.910;35.562;2023-11-19T12:57:56;99032.22;;;17.21;49.23
73692;BME280;61996;49.910;35.562;2023-11-19T13:01:02;99046.91;;;17.25;49.07
73692;BME280;61996;49.910;35.562;2023-11-19T13:04:17;99048.72;;;17.15;49.32
73692;BME280;61996;49.910;35.562;2023-11-19T13:07:20;99037.94;;;17.16;49.17
73692;BME280;61996;49.910;35.562;2023-11-19T13:10:23;99034.59;;;17.14;49.20
73692;BME280;61996;49.910;35.562;2023-11-19T13:17:01;99028.59;;;17.03;49.41
73692;BME280;61996;49.910;35.562;2023-11-19T13:20:05;99029.00;;;17.27;48.94
73692;BME280;61996;49.910;35.562;2023-11-19T13:23:09;99018.97;;;17.11;49.20
73692;BME280;61996;49.910;35.562;2023-11-19T13:26:12;99027.19;;;17.08;49.30
73692;BME280;61996;49.910;35.562;2023-11-19T13:29:14;99012.63;;;17.22;49.14
73692;BME280;61996;49.910;35.562;2023-11-19T13:32:19;99002.03;;;17.12;49.23
73692;BME280;61996;49.910;35.562;2023-11-19T13:35:21;98999.75;;;17.27;49.06
73692;BME280;61996;49.910;35.562;2023-11-19T13:38:25;99000.47;;;17.10;49.18
73692;BME280;61996;49.910;35.562;2023-11-19T13:41:27;98997.44;;;17.05;49.28
73692;BME280;61996;49.910;35.562;2023-11-19T13:44:30;98988.75;;;17.12;49.06
73692;BME280;61996;49.910;35.562;2023-11-19T13:47:35;98981.88;;;17.19;48.87
73692;BME280;61996;49.910;35.562;2023-11-19T13:50:38;98979.44;;;17.45;48.41
73692;BME280;61996;49.910;35.562;2023-11-19T13:53:40;98988.25;;;17.46;48.46
73692;BME280;61996;49.910;35.562;2023-11-19T13:56:47;98987.22;;;17.57;47.87
73692;BME280;61996;49.910;35.562;2023-11-19T13:59:50;98974.84;;;17.65;48.16
73692;BME280;61996;49.910;35.562;2023-11-19T14:02:54;98980.03;;;17.76;47.95
73692;BME280;61996;49.910;35.562;2023-11-19T14:05:57;98981.09;;;17.84;47.80
73692;BME280;61996;49.910;35.562;2023-11-19T14:09:00;98983.44;;;17.87;47.70
73692;BME280;61996;49.910;35.562;2023-11-19T14:12:04;98982.34;;;17.89;47.72
73692;BME280;61996;49.910;35.562;2023-11-19T14:15:08;98984.78;;;18.00;47.58
73692;BME280;61996;49.910;35.562;2023-11-19T14:18:15;98985.63;;;18.01;47.28
73692;BME280;61996;49.910;35.562;2023-11-19T14:21:18;98979.41;;;18.10;47.85
73692;BME280;61996;49.910;35.562;2023-11-19T14:24:21;98985.56;;;18.11;47.20
73692;BME280;61996;49.910;35.562;2023-11-19T14:27:25;98984.16;;;18.16;47.21
73692;BME280;61996;49.910;35.562;2023-11-19T14:30:28;98992.50;;;18.21;47.20
73692;BME280;61996;49.910;35.562;2023-11-19T14:33:33;98988.00;;;18.22;47.09
73692;BME280;61996;49.910;35.562;2023-11-19T14:36:38;99003.53;;;18.26;47.11
73692;BME280;61996;49.910;35.562;2023-11-19T14:39:41;98998.59;;;18.31;47.09
73692;BME280;61996;49.910;35.562;2023-11-19T14:42:48;98995.09;;;18.31;47.01
73692;BME280;61996;49.910;35.562;2023-11-19T14:45:51;99005.44;;;18.34;46.94
73692;BME280;61996;49.910;35.562;2023-11-19T14:48:57;99008.34;;;18.41;46.83
73692;BME280;61996;49.910;35.562;2023-11-19T14:52:00;99003.25;;;18.47;46.76
73692;BME280;61996;49.910;35.562;2023-11-19T14:55:08;99003.16;;;18.39;46.91
73692;BME280;61996;49.910;35.562;2023-11-19T14:58:11;99008.09;;;18.34;46.67
73692;BME280;61996;49.910;35.562;2023-11-19T15:01:18;99005.06;;;18.29;46.95
73692;BME280;61996;49.910;35.562;2023-11-19T15:04:22;99007.88;;;18.27;46.91
73692;BME280;61996;49.910;35.562;2023-11-19T15:07:25;99005.66;;;18.23;47.04
73692;BME280;61996;49.910;35.562;2023-11-19T15:10:28;98997.28;;;18.18;47.08
73692;BME280;61996;49.910;35.562;2023-11-19T15:13:31;98994.53;;;18.10;47.20
73692;BME280;61996;49.910;35.562;2023-11-19T15:16:35;98993.56;;;18.11;47.25
73692;BME280;61996;49.910;35.562;2023-11-19T15:19:39;98994.41;;;18.11;47.21
73692;BME280;61996;49.910;35.562;2023-11-19T15:22:42;99001.06;;;17.97;47.49
73692;BME280;61996;49.910;35.562;2023-11-19T15:25:45;98984.50;;;18.03;47.48
73692;BME280;61996;49.910;35.562;2023-11-19T15:28:49;98984.50;;;18.03;47.45
73692;BME280;61996;49.910;35.562;2023-11-19T15:31:52;98988.44;;;17.99;47.38
73692;BME280;61996;49.910;35.562;2023-11-19T15:34:56;98992.16;;;17.89;47.59
73692;BME280;61996;49.910;35.562;2023-11-19T15:37:59;98989.75;;;17.86;47.66
73692;BME280;61996;49.910;35.562;2023-11-19T15:41:02;98979.72;;;17.79;47.80
73692;BME280;61996;49.910;35.562;2023-11-19T15:44:07;98984.91;;;17.81;47.79
73692;BME280;61996;49.910;35.562;2023-11-19T15:47:10;98991.81;;;17.74;47.88
73692;BME280;61996;49.910;35.562;2023-11-19T15:50:16;98985.06;;;17.70;47.91
73692;BME280;61996;49.910;35.562;2023-11-19T15:53:19;98978.22;;;17.67;48.08
73692;BME280;61996;49.910;35.562;2023-11-19T15:56:22;98980.16;;;17.75;47.68
73692;BME280;61996;49.910;35.562;2023-11-19T15:59:25;98961.09;;;17.79;47.79
73692;BME280;61996;49.910;35.562;2023-11-19T16:02:28;98956.41;;;17.91;47.42
73692;BME280;61996;49.910;35.562;2023-11-19T16:05:32;98955.97;;;17.96;47.54
73692;BME280;61996;49.910;35.562;2023-11-19T16:08:35;98950.16;;;18.10;47.16